createdAt,value
2022-07-30T00:02:33.686Z,19.57
2022-07-30T00:05:41.709Z,19.33
2022-07-30T00:08:49.667Z,19.11
2022-07-30T00:11:58.028Z,18.94
2022-07-30T00:14:58.785Z,18.92
2022-07-30T00:18:06.409Z,18.86
2022-07-30T00:21:27.408Z,18.83
2022-07-30T00:24:19.395Z,18.84
2022-07-30T00:27:22.063Z,18.74
2022-07-30T00:30:29.824Z,18.68
2022-07-30T00:33:37.623Z,18.68
2022-07-30T00:36:46.006Z,18.67
2022-07-30T00:39:53.857Z,18.64
2022-07-30T00:43:01.638Z,18.64
2022-07-30T00:46:09.213Z,18.58
2022-07-30T00:49:17.479Z,18.61
2022-07-30T00:52:25.531Z,18.54
2022-07-30T00:55:32.939Z,18.42
2022-07-30T00:58:40.986Z,18.37
2022-07-30T01:01:48.981Z,18.39
2022-07-30T01:04:56.264Z,18.47
2022-07-30T01:08:04.478Z,18.52
2022-07-30T01:11:04.446Z,18.59
2022-07-30T01:14:12.239Z,18.62
2022-07-30T01:17:20.353Z,18.55
2022-07-30T01:20:27.690Z,18.50
2022-07-30T01:23:35.891Z,18.47
2022-07-30T01:26:44.411Z,18.37
2022-07-30T01:29:52.902Z,18.28
2022-07-30T01:33:00.984Z,18.25
2022-07-30T01:36:09.297Z,18.31
2022-07-30T01:39:17.580Z,18.03
2022-07-30T01:42:25.586Z,17.64
2022-07-30T01:45:35.699Z,17.46
2022-07-30T01:48:38.449Z,17.08
2022-07-30T01:51:46.393Z,16.75
2022-07-30T01:54:54.272Z,16.80
2022-07-30T01:58:01.991Z,17.00
2022-07-30T02:01:09.574Z,17.13
2022-07-30T02:04:17.760Z,17.17
2022-07-30T02:07:26.022Z,17.15
2022-07-30T02:10:33.455Z,17.10
2022-07-30T02:13:41.674Z,16.95
2022-07-30T02:16:49.654Z,16.98
2022-07-30T02:19:57.681Z,17.03
2022-07-30T02:23:05.908Z,17.11
2022-07-30T02:26:13.378Z,17.15
2022-07-30T02:29:21.571Z,17.22
2022-07-30T02:32:29.490Z,17.25
2022-07-30T02:35:36.885Z,17.15
2022-07-30T02:38:44.803Z,17.13
2022-07-30T02:41:53.054Z,17.17
2022-07-30T02:45:00.744Z,17.26
2022-07-30T02:48:08.808Z,17.32
2022-07-30T02:51:16.506Z,17.33
2022-07-30T02:54:24.265Z,17.30
2022-07-30T02:57:32.348Z,17.22
2022-07-30T03:00:40.189Z,17.18
2022-07-30T03:03:48.254Z,17.25
2022-07-30T03:06:56.359Z,17.32
2022-07-30T03:10:04.144Z,17.32
2022-07-30T03:13:12.031Z,17.32
2022-07-30T03:16:19.956Z,17.15
2022-07-30T03:19:28.185Z,17.00
2022-07-30T03:22:35.947Z,16.98
2022-07-30T03:25:43.997Z,17.00
2022-07-30T03:28:52.305Z,16.89
2022-07-30T03:32:00.291Z,16.81
2022-07-30T03:35:08.753Z,16.78
2022-07-30T03:38:13.119Z,16.77
2022-07-30T03:41:20.482Z,16.75
2022-07-30T03:44:28.781Z,16.75
2022-07-30T03:47:36.870Z,16.74
2022-07-30T03:50:44.226Z,16.75
2022-07-30T03:53:52.719Z,16.52
2022-07-30T03:57:01.328Z,16.41
2022-07-30T04:00:08.847Z,16.37
2022-07-30T04:03:17.109Z,16.23
2022-07-30T04:06:25.200Z,16.26
2022-07-30T04:09:33.136Z,16.27
2022-07-30T04:12:40.602Z,16.31
2022-07-30T04:16:31.753Z,16.35
2022-07-30T04:18:53.694Z,16.41
2022-07-30T04:22:01.803Z,16.45
2022-07-30T04:25:09.538Z,16.48
2022-07-30T04:28:17.503Z,16.45
2022-07-30T04:31:25.302Z,16.44
2022-07-30T04:34:33.476Z,16.45
2022-07-30T04:37:41.009Z,16.49
2022-07-30T04:40:49.553Z,16.49
2022-07-30T04:43:57.870Z,16.55
2022-07-30T04:47:05.560Z,16.59
2022-07-30T04:50:13.310Z,16.63
2022-07-30T04:53:21.099Z,16.73
2022-07-30T04:56:28.616Z,16.78
2022-07-30T04:59:36.653Z,16.75
2022-07-30T05:02:44.386Z,16.77
2022-07-30T05:05:56.771Z,16.81
2022-07-30T05:08:54.276Z,16.89
2022-07-30T05:12:02.177Z,16.93
2022-07-30T05:15:10.158Z,16.99
2022-07-30T05:18:18.368Z,17.00
2022-07-30T05:21:25.720Z,17.03
2022-07-30T05:24:26.422Z,17.07
2022-07-30T05:27:34.427Z,16.99
2022-07-30T05:30:37.322Z,16.99
2022-07-30T05:33:42.335Z,17.04
2022-07-30T05:36:40.214Z,17.08
2022-07-30T05:39:57.611Z,17.14
2022-07-30T05:42:53.016Z,17.14
2022-07-30T05:46:00.868Z,17.14
2022-07-30T05:49:08.875Z,17.08
2022-07-30T05:52:17.207Z,16.99
2022-07-30T05:55:25.046Z,16.93
2022-07-30T05:58:32.882Z,16.90
2022-07-30T06:01:41.208Z,16.92
2022-07-30T06:04:49.020Z,16.90
2022-07-30T06:07:56.872Z,16.95
2022-07-30T06:11:04.583Z,16.98
2022-07-30T06:14:12.845Z,16.93
2022-07-30T06:17:21.577Z,17.08
2022-07-30T06:20:29.267Z,17.08
2022-07-30T06:23:37.448Z,17.29
2022-07-30T06:26:45.330Z,17.43
2022-07-30T06:29:53.540Z,17.53
2022-07-30T06:33:01.964Z,17.63
2022-07-30T06:36:14.130Z,17.63
2022-07-30T06:39:11.247Z,17.57
2022-07-30T06:42:19.372Z,17.53
2022-07-30T06:45:26.795Z,17.63
2022-07-30T06:48:35.086Z,17.67
2022-07-30T06:51:44.556Z,17.57
2022-07-30T06:54:52.377Z,17.63
2022-07-30T06:58:01.070Z,17.74
2022-07-30T07:01:10.912Z,17.76
2022-07-30T07:04:09.066Z,17.78
2022-07-30T07:07:31.574Z,17.94
2022-07-30T07:10:22.753Z,17.97
2022-07-30T07:13:31.641Z,17.91
2022-07-30T07:16:40.372Z,17.97
2022-07-30T07:19:59.918Z,18.06
2022-07-30T07:22:53.626Z,18.15
2022-07-30T07:26:01.395Z,18.29
2022-07-30T07:29:10.090Z,18.36
2022-07-30T07:32:18.405Z,18.50
2022-07-30T07:35:26.131Z,18.73
2022-07-30T07:38:34.802Z,18.67
2022-07-30T07:41:48.452Z,18.64
2022-07-30T07:44:46.144Z,18.65
2022-07-30T07:47:54.714Z,18.59
2022-07-30T07:51:02.728Z,18.72
2022-07-30T07:54:21.110Z,18.73
2022-07-30T07:57:11.603Z,18.87
2022-07-30T08:00:11.419Z,18.94
2022-07-30T08:03:19.000Z,18.99
2022-07-30T08:06:26.531Z,19.21
2022-07-30T08:09:43.938Z,19.18
2022-07-30T08:12:39.123Z,19.39
2022-07-30T08:15:46.823Z,19.51
2022-07-30T08:18:54.612Z,19.43
2022-07-30T08:22:02.279Z,19.36
2022-07-30T08:25:10.026Z,19.39
2022-07-30T08:28:35.490Z,19.47
2022-07-30T08:31:23.378Z,19.68
2022-07-30T08:34:31.441Z,19.86
2022-07-30T08:37:39.579Z,19.97
2022-07-30T08:40:47.999Z,20.08
2022-07-30T08:43:56.524Z,20.25
2022-07-30T08:47:04.993Z,20.42
2022-07-30T08:50:12.532Z,20.59
2022-07-30T08:53:14.372Z,20.66
2022-07-30T08:56:21.927Z,20.80
2022-07-30T08:59:59.083Z,20.80
2022-07-30T09:02:35.058Z,20.89
2022-07-30T09:05:42.889Z,20.96
2022-07-30T09:08:50.658Z,21.01
2022-07-30T09:11:58.819Z,20.91
2022-07-30T09:15:08.553Z,20.98
2022-07-30T09:18:16.425Z,21.08
2022-07-30T09:21:24.254Z,21.17
2022-07-30T09:24:32.557Z,21.23
2022-07-30T09:27:40.968Z,21.30
2022-07-30T09:30:48.818Z,21.53
2022-07-30T09:33:56.971Z,21.67
2022-07-30T09:37:04.369Z,21.69
2022-07-30T09:40:12.449Z,21.75
2022-07-30T09:43:23.278Z,21.71
2022-07-30T09:46:22.352Z,21.66
2022-07-30T09:49:30.326Z,21.60
2022-07-30T09:52:44.242Z,21.75
2022-07-30T09:55:43.166Z,21.67
2022-07-30T09:58:51.918Z,21.56
2022-07-30T10:02:03.817Z,21.57
2022-07-30T10:05:02.070Z,21.57
2022-07-30T10:08:18.880Z,21.76
2022-07-30T10:11:15.394Z,21.79
2022-07-30T10:14:30.887Z,21.85
2022-07-30T10:17:28.443Z,21.85
2022-07-30T10:20:38.767Z,21.90
2022-07-30T10:23:50.486Z,22.01
2022-07-30T10:26:58.891Z,22.13
2022-07-30T10:30:07.239Z,22.25
2022-07-30T10:33:09.355Z,22.31
2022-07-30T10:36:15.074Z,22.37
2022-07-30T10:39:24.403Z,22.54
2022-07-30T10:42:33.819Z,22.69
2022-07-30T10:45:46.321Z,22.77
2022-07-30T10:48:44.701Z,22.87
2022-07-30T10:51:52.767Z,23.02
2022-07-30T10:55:01.545Z,23.09
2022-07-30T10:58:06.270Z,23.05
2022-07-30T11:01:18.150Z,23.20
2022-07-30T11:04:15.963Z,23.35
2022-07-30T11:07:17.714Z,23.45
2022-07-30T11:10:26.225Z,23.47
2022-07-30T11:13:36.233Z,23.45
2022-07-30T11:16:35.577Z,23.52
2022-07-30T11:19:54.874Z,23.60
2022-07-30T11:22:51.127Z,23.58
2022-07-30T11:25:59.371Z,23.76
2022-07-30T11:29:06.929Z,23.89
2022-07-30T11:32:15.304Z,24.13
2022-07-30T11:35:23.446Z,24.45
2022-07-30T11:38:31.597Z,24.60
2022-07-30T11:41:39.797Z,24.54
2022-07-30T11:44:47.338Z,24.54
2022-07-30T11:47:55.659Z,24.59
2022-07-30T11:51:04.215Z,24.53
2022-07-30T11:54:11.142Z,24.38
2022-07-30T11:57:19.414Z,24.32
2022-07-30T12:00:27.381Z,24.44
2022-07-30T12:03:35.417Z,24.59
2022-07-30T12:06:43.928Z,24.63
2022-07-30T12:09:51.909Z,24.64
2022-07-30T12:12:59.971Z,24.68
2022-07-30T12:16:08.240Z,24.82
2022-07-30T12:19:16.087Z,24.91
2022-07-30T12:22:23.860Z,24.95
2022-07-30T12:25:31.640Z,25.06
2022-07-30T12:28:39.747Z,25.17
2022-07-30T12:31:47.357Z,25.20
2022-07-30T12:34:54.880Z,25.37
2022-07-30T12:38:03.069Z,25.39
2022-07-30T12:41:10.712Z,25.49
2022-07-30T12:44:18.501Z,25.57
2022-07-30T12:47:10.570Z,25.65
2022-07-30T12:50:18.530Z,25.65
2022-07-30T12:53:26.642Z,25.90
2022-07-30T12:56:34.271Z,26.32
2022-07-30T12:59:42.015Z,26.43
2022-07-30T13:02:50.127Z,26.39
2022-07-30T13:05:57.538Z,26.59
2022-07-30T13:09:05.519Z,26.61
2022-07-30T13:12:13.491Z,26.55
2022-07-30T13:15:20.861Z,26.61
2022-07-30T13:18:28.971Z,26.65
2022-07-30T13:21:36.593Z,26.87
2022-07-30T13:24:44.255Z,27.19
2022-07-30T13:27:52.177Z,27.41
2022-07-30T13:30:59.957Z,27.47
2022-07-30T13:34:07.778Z,27.48
2022-07-30T13:37:15.672Z,27.38
2022-07-30T13:40:23.212Z,27.54
2022-07-30T13:43:33.528Z,27.33
2022-07-30T13:46:30.667Z,27.36
2022-07-30T13:49:38.633Z,27.36
2022-07-30T13:52:46.280Z,27.43
2022-07-30T13:55:53.998Z,27.41
2022-07-30T13:59:01.730Z,27.47
2022-07-30T14:02:09.991Z,27.71
2022-07-30T14:05:17.783Z,27.79
2022-07-30T14:08:25.484Z,27.95
2022-07-30T14:11:34.204Z,28.07
2022-07-30T14:14:42.118Z,28.13
2022-07-30T14:17:56.181Z,28.17
2022-07-30T14:20:53.709Z,28.13
2022-07-30T14:24:01.910Z,27.88
2022-07-30T14:27:11.382Z,27.92
2022-07-30T14:30:19.185Z,28.29
2022-07-30T14:33:26.956Z,28.58
2022-07-30T14:36:35.026Z,28.75
2022-07-30T14:39:42.834Z,28.77
2022-07-30T14:42:50.459Z,28.62
2022-07-30T14:45:58.047Z,28.47
2022-07-30T14:49:05.986Z,28.21
2022-07-30T14:52:13.642Z,27.95
2022-07-30T14:55:21.344Z,27.59
2022-07-30T14:58:29.025Z,27.28
2022-07-30T15:01:36.824Z,27.06
2022-07-30T15:04:44.895Z,26.79
2022-07-30T15:07:52.530Z,26.58
2022-07-30T15:11:02.667Z,26.42
2022-07-30T15:14:02.812Z,26.24
2022-07-30T15:17:10.604Z,26.08
2022-07-30T15:20:18.306Z,25.97
2022-07-30T15:23:26.015Z,25.84
2022-07-30T15:26:33.815Z,25.74
2022-07-30T15:29:41.339Z,25.62
2022-07-30T15:32:49.439Z,25.52
2022-07-30T15:35:56.814Z,25.39
2022-07-30T15:39:05.231Z,25.31
2022-07-30T15:42:14.645Z,25.20
2022-07-30T15:45:22.094Z,25.17
2022-07-30T15:48:30.558Z,25.16
2022-07-30T15:51:38.988Z,25.13
2022-07-30T15:54:46.500Z,25.07
2022-07-30T15:57:54.888Z,24.98
2022-07-30T16:01:02.825Z,24.95
2022-07-30T16:04:18.984Z,24.94
2022-07-30T16:07:16.504Z,24.91
2022-07-30T16:10:24.395Z,24.90
2022-07-30T16:13:32.354Z,24.87
2022-07-30T16:16:40.548Z,24.71
2022-07-30T16:19:48.297Z,24.41
2022-07-30T16:22:56.353Z,24.19
2022-07-30T16:26:04.539Z,24.13
2022-07-30T16:29:13.994Z,24.12
2022-07-30T16:32:22.234Z,24.20
2022-07-30T16:35:30.234Z,24.24
2022-07-30T16:38:38.513Z,24.27
2022-07-30T16:41:46.485Z,24.29
2022-07-30T16:44:54.300Z,24.13
2022-07-30T16:48:02.590Z,23.90
2022-07-30T16:51:10.552Z,23.67
2022-07-30T16:54:20.013Z,23.50
2022-07-30T16:57:28.365Z,23.40
2022-07-30T17:00:35.996Z,23.15
2022-07-30T17:03:44.206Z,22.92
2022-07-30T17:06:52.696Z,22.80
2022-07-30T17:10:00.143Z,22.75
2022-07-30T17:13:08.333Z,22.68
2022-07-30T17:16:16.411Z,22.50
2022-07-30T17:19:24.012Z,22.38
2022-07-30T17:22:32.223Z,22.28
2022-07-30T17:25:40.225Z,22.19
2022-07-30T17:28:48.185Z,22.12
2022-07-30T17:31:56.506Z,22.04
2022-07-30T17:35:04.386Z,22.02
2022-07-30T17:38:12.227Z,22.02
2022-07-30T17:41:20.530Z,22.07
2022-07-30T17:44:28.523Z,22.04
2022-07-30T17:47:36.632Z,22.01
2022-07-30T17:50:44.971Z,21.97
2022-07-30T17:53:54.192Z,21.88
2022-07-30T17:57:02.166Z,21.74
2022-07-30T18:00:10.097Z,21.64
2022-07-30T18:03:18.589Z,21.59
2022-07-30T18:06:26.590Z,21.51
2022-07-30T18:09:38.881Z,21.50
2022-07-30T18:12:38.210Z,21.50
2022-07-30T18:15:46.423Z,21.44
2022-07-30T18:18:54.331Z,21.35
2022-07-30T18:22:03.137Z,21.35
2022-07-30T18:25:18.552Z,21.34
2022-07-30T18:28:16.837Z,21.38
2022-07-30T18:31:24.969Z,21.34
2022-07-30T18:34:32.193Z,21.21
2022-07-30T18:37:41.848Z,21.09
2022-07-30T18:40:50.291Z,21.06
2022-07-30T18:43:57.633Z,21.06
2022-07-30T18:47:05.524Z,21.08
2022-07-30T18:50:14.458Z,21.08
2022-07-30T18:53:22.516Z,21.01
2022-07-30T18:56:31.205Z,20.89
2022-07-30T18:59:38.919Z,20.84
2022-07-30T19:02:46.611Z,20.81
2022-07-30T19:05:54.552Z,20.76
2022-07-30T19:09:02.223Z,20.76
2022-07-30T19:12:09.915Z,20.72
2022-07-30T19:15:17.774Z,20.71
2022-07-30T19:18:26.105Z,20.72
2022-07-30T19:21:33.834Z,20.74
2022-07-30T19:24:41.701Z,20.77
2022-07-30T19:27:49.450Z,20.77
2022-07-30T19:30:56.868Z,20.77
2022-07-30T19:34:04.882Z,20.77
2022-07-30T19:37:12.812Z,20.80
2022-07-30T19:40:20.952Z,20.81
2022-07-30T19:43:30.742Z,20.79
2022-07-30T19:46:30.497Z,20.80
2022-07-30T19:49:41.586Z,20.77
2022-07-30T19:52:51.263Z,20.71
2022-07-30T19:55:59.076Z,20.61
2022-07-30T20:02:13.755Z,20.09
2022-07-30T20:05:21.154Z,19.86
2022-07-30T20:08:24.561Z,19.75
2022-07-30T20:11:36.394Z,19.68
2022-07-30T20:14:27.295Z,19.61
2022-07-30T20:17:35.646Z,19.57
2022-07-30T20:20:42.997Z,19.47
2022-07-30T20:23:52.579Z,19.29
2022-07-30T20:27:00.301Z,19.10
2022-07-30T20:30:08.109Z,18.95
2022-07-30T20:33:16.132Z,18.84
2022-07-30T20:36:21.180Z,18.76
2022-07-30T20:39:28.922Z,18.64
2022-07-30T20:42:36.805Z,18.68
2022-07-30T20:45:44.874Z,18.79
2022-07-30T20:48:53.325Z,18.82
2022-07-30T20:52:01.096Z,18.87
2022-07-30T20:55:14.366Z,18.92
2022-07-30T20:58:16.507Z,18.94
2022-07-30T21:01:17.250Z,18.92
2022-07-30T21:04:23.805Z,18.90
2022-07-30T21:07:20.494Z,18.87
2022-07-30T21:10:29.009Z,18.84
2022-07-30T21:13:36.957Z,18.84
2022-07-30T21:16:44.784Z,18.84
2022-07-30T21:19:54.106Z,18.86
2022-07-30T21:23:02.263Z,18.84
2022-07-30T21:26:13.636Z,18.83
2022-07-30T21:29:11.419Z,18.84
2022-07-30T21:32:18.849Z,18.84
2022-07-30T21:35:32.103Z,18.87
2022-07-30T21:38:30.541Z,18.87
2022-07-30T21:41:40.563Z,18.87
2022-07-30T21:44:38.422Z,18.82
2022-07-30T21:47:47.950Z,18.73
2022-07-30T21:50:55.765Z,18.64
2022-07-30T21:54:07.023Z,18.47
2022-07-30T21:57:04.286Z,18.34
2022-07-30T22:00:14.738Z,18.27
2022-07-30T22:04:02.124Z,18.21
2022-07-30T22:06:28.669Z,18.19
2022-07-30T22:09:37.671Z,18.13
2022-07-30T22:12:45.472Z,18.12
2022-07-30T22:15:53.613Z,18.18
2022-07-30T22:19:00.984Z,18.24
2022-07-30T22:22:26.531Z,18.28
2022-07-30T22:25:16.465Z,18.37
2022-07-30T22:28:23.864Z,18.42
2022-07-30T22:31:39.643Z,18.50
2022-07-30T22:34:37.522Z,18.59
2022-07-30T22:37:44.902Z,18.64
2022-07-30T22:40:53.881Z,18.70
2022-07-30T22:44:01.304Z,18.72
2022-07-30T22:47:10.165Z,18.77
2022-07-30T22:50:15.029Z,18.82
2022-07-30T22:54:03.027Z,18.83
2022-07-30T22:56:30.280Z,18.83
2022-07-30T22:59:57.967Z,18.80
2022-07-30T23:02:45.179Z,18.77
2022-07-30T23:05:55.042Z,18.84
2022-07-30T23:08:54.010Z,18.91
2022-07-30T23:12:03.327Z,18.91
2022-07-30T23:12:15.503Z,20.33
2022-07-30T23:15:11.302Z,18.92
2022-07-30T23:18:19.491Z,18.91
2022-07-30T23:21:27.314Z,18.92
2022-07-30T23:24:35.105Z,18.92
2022-07-30T23:27:36.868Z,18.90
2022-07-30T23:30:44.186Z,18.90
2022-07-30T23:33:52.240Z,18.80
2022-07-30T23:37:00.665Z,18.58
2022-07-30T23:40:08.230Z,18.46
2022-07-30T23:43:16.040Z,18.37
2022-07-30T23:46:23.959Z,18.25
2022-07-30T23:49:31.595Z,18.19
2022-07-30T23:52:39.374Z,18.15
2022-07-30T23:55:47.233Z,18.12
2022-07-30T23:58:55.454Z,18.04
